sensor_id;sensor_type;location;lat;lon;timestamp;temperature;humidity
19555;DHT22;9924;50.828;6.440;2023-12-28T00:00:17;9.30;99.90
19555;DHT22;9924;50.828;6.440;2023-12-28T00:02:43;9.20;99.90
19555;DHT22;9924;50.828;6.440;2023-12-28T00:05:09;9.10;99.90
19555;DHT22;9924;50.828;6.440;2023-12-28T00:07:34;9.00;99.90
19555;DHT22;9924;50.828;6.440;2023-12-28T00:10:02;9.00;99.90
19555;DHT22;9924;50.828;6.440;2023-12-28T00:12:28;9.00;99.90
19555;DHT22;9924;50.828;6.440;2023-12-28T00:14:53;9.00;99.90
19555;DHT22;9924;50.828;6.440;2023-12-28T00:17:19;9.00;99.90
19555;DHT22;9924;50.828;6.440;2023-12-28T00:19:45;9.00;99.90
19555;DHT22;9924;50.828;6.440;2023-12-28T00:22:11;9.00;99.90
19555;DHT22;9924;50.828;6.440;2023-12-28T00:24:36;9.00;99.90
19555;DHT22;9924;50.828;6.440;2023-12-28T00:27:02;9.00;99.90
19555;DHT22;9924;50.828;6.440;2023-12-28T00:29:28;9.00;99.90
19555;DHT22;9924;50.828;6.440;2023-12-28T00:31:54;8.90;99.90
19555;DHT22;9924;50.828;6.440;2023-12-28T00:34:20;8.90;99.90
19555;DHT22;9924;50.828;6.440;2023-12-28T00:36:46;9.00;99.90
19555;DHT22;9924;50.828;6.440;2023-12-28T00:39:11;9.00;99.90
19555;DHT22;9924;50.828;6.440;2023-12-28T00:41:37;9.00;99.90
19555;DHT22;9924;50.828;6.440;2023-12-28T00:44:03;9.00;99.90
19555;DHT22;9924;50.828;6.440;2023-12-28T00:46:30;9.10;99.90
19555;DHT22;9924;50.828;6.440;2023-12-28T00:48:56;9.10;99.90
19555;DHT22;9924;50.828;6.440;2023-12-28T00:51:21;9.20;99.90
19555;DHT22;9924;50.828;6.440;2023-12-28T00:53:47;9.20;99.90
19555;DHT22;9924;50.828;6.440;2023-12-28T00:56:13;9.30;99.90
19555;DHT22;9924;50.828;6.440;2023-12-28T00:58:40;9.40;99.90
19555;DHT22;9924;50.828;6.440;2023-12-28T01:01:06;9.40;99.90
19555;DHT22;9924;50.828;6.440;2023-12-28T01:03:31;9.50;99.90
19555;DHT22;9924;50.828;6.440;2023-12-28T01:05:57;9.50;99.90
19555;DHT22;9924;50.828;6.440;2023-12-28T01:08:22;9.50;99.90
19555;DHT22;9924;50.828;6.440;2023-12-28T01:10:48;9.50;99.90
19555;DHT22;9924;50.828;6.440;2023-12-28T01:13:14;9.50;99.90
19555;DHT22;9924;50.828;6.440;2023-12-28T01:15:40;9.50;99.90
19555;DHT22;9924;50.828;6.440;2023-12-28T01:18:05;9.60;99.90
19555;DHT22;9924;50.828;6.440;2023-12-28T01:20:31;9.50;99.90
19555;DHT22;9924;50.828;6.440;2023-12-28T01:22:57;9.60;99.90
19555;DHT22;9924;50.828;6.440;2023-12-28T01:25:22;9.60;99.90
19555;DHT22;9924;50.828;6.440;2023-12-28T01:27:48;9.50;99.90
19555;DHT22;9924;50.828;6.440;2023-12-28T01:30:14;9.50;99.90
19555;DHT22;9924;50.828;6.440;2023-12-28T01:32:39;9.50;99.90
19555;DHT22;9924;50.828;6.440;2023-12-28T01:35:05;9.60;99.90
19555;DHT22;9924;50.828;6.440;2023-12-28T01:37:31;9.60;99.90
19555;DHT22;9924;50.828;6.440;2023-12-28T01:39:59;9.60;99.90
19555;DHT22;9924;50.828;6.440;2023-12-28T01:42:26;9.60;99.90
19555;DHT22;9924;50.828;6.440;2023-12-28T01:44:52;9.60;99.90
19555;DHT22;9924;50.828;6.440;2023-12-28T01:47:18;9.60;99.90
19555;DHT22;9924;50.828;6.440;2023-12-28T01:49:44;9.60;99.90
19555;DHT22;9924;50.828;6.440;2023-12-28T01:52:10;9.60;99.90
19555;DHT22;9924;50.828;6.440;2023-12-28T01:54:36;9.60;99.90
19555;DHT22;9924;50.828;6.440;2023-12-28T01:57:03;9.60;99.90
19555;DHT22;9924;50.828;6.440;2023-12-28T01:59:30;9.60;99.90
19555;DHT22;9924;50.828;6.440;2023-12-28T02:01:57;9.60;99.90
19555;DHT22;9924;50.828;6.440;2023-12-28T02:04:23;9.60;99.90
19555;DHT22;9924;50.828;6.440;2023-12-28T02:06:57;9.60;99.90
19555;DHT22;9924;50.828;6.440;2023-12-28T02:09:23;9.60;99.90
19555;DHT22;9924;50.828;6.440;2023-12-28T02:11:49;9.60;99.90
19555;DHT22;9924;50.828;6.440;2023-12-28T02:14:15;9.60;99.90
19555;DHT22;9924;50.828;6.440;2023-12-28T02:16:46;9.60;99.90
19555;DHT22;9924;50.828;6.440;2023-12-28T02:22:08;9.70;99.90
19555;DHT22;9924;50.828;6.440;2023-12-28T02:24:56;9.70;99.90
19555;DHT22;9924;50.828;6.440;2023-12-28T02:27:22;9.70;99.90
19555;DHT22;9924;50.828;6.440;2023-12-28T02:29:47;9.70;99.90
19555;DHT22;9924;50.828;6.440;2023-12-28T02:32:13;9.70;99.90
19555;DHT22;9924;50.828;6.440;2023-12-28T02:34:43;9.70;99.90
19555;DHT22;9924;50.828;6.440;2023-12-28T02:37:12;9.80;99.90
19555;DHT22;9924;50.828;6.440;2023-12-28T02:39:38;9.80;99.90
19555;DHT22;9924;50.828;6.440;2023-12-28T02:42:04;9.80;99.90
19555;DHT22;9924;50.828;6.440;2023-12-28T02:44:30;9.80;99.90
19555;DHT22;9924;50.828;6.440;2023-12-28T02:46:56;9.90;99.90
19555;DHT22;9924;50.828;6.440;2023-12-28T02:49:21;9.90;99.90
19555;DHT22;9924;50.828;6.440;2023-12-28T02:51:47;9.90;99.90
19555;DHT22;9924;50.828;6.440;2023-12-28T02:54:13;10.00;99.90
19555;DHT22;9924;50.828;6.440;2023-12-28T02:56:40;10.00;99.90
19555;DHT22;9924;50.828;6.440;2023-12-28T03:01:32;10.10;99.90
19555;DHT22;9924;50.828;6.440;2023-12-28T03:03:58;10.00;99.90
19555;DHT22;9924;50.828;6.440;2023-12-28T03:06:23;10.10;99.90
19555;DHT22;9924;50.828;6.440;2023-12-28T03:08:49;10.00;99.90
19555;DHT22;9924;50.828;6.440;2023-12-28T03:11:15;10.00;99.90
19555;DHT22;9924;50.828;6.440;2023-12-28T03:13:41;9.90;99.90
19555;DHT22;9924;50.828;6.440;2023-12-28T03:16:07;9.90;99.90
19555;DHT22;9924;50.828;6.440;2023-12-28T03:18:32;10.00;99.90
19555;DHT22;9924;50.828;6.440;2023-12-28T03:20:58;10.10;99.90
19555;DHT22;9924;50.828;6.440;2023-12-28T03:23:23;10.10;99.90
19555;DHT22;9924;50.828;6.440;2023-12-28T03:25:49;10.10;99.90
19555;DHT22;9924;50.828;6.440;2023-12-28T03:28:15;10.10;99.90
19555;DHT22;9924;50.828;6.440;2023-12-28T03:30:40;10.10;99.90
19555;DHT22;9924;50.828;6.440;2023-12-28T03:33:06;10.10;99.90
19555;DHT22;9924;50.828;6.440;2023-12-28T03:35:31;10.10;99.90
19555;DHT22;9924;50.828;6.440;2023-12-28T03:37:57;10.00;99.90
19555;DHT22;9924;50.828;6.440;2023-12-28T03:40:23;10.00;99.90
19555;DHT22;9924;50.828;6.440;2023-12-28T03:42:49;10.00;99.90
19555;DHT22;9924;50.828;6.440;2023-12-28T03:45:14;10.00;99.90
19555;DHT22;9924;50.828;6.440;2023-12-28T03:47:40;10.00;99.90
19555;DHT22;9924;50.828;6.440;2023-12-28T03:50:06;10.00;99.90
19555;DHT22;9924;50.828;6.440;2023-12-28T03:52:32;10.00;99.90
19555;DHT22;9924;50.828;6.440;2023-12-28T03:54:57;10.00;99.90
19555;DHT22;9924;50.828;6.440;2023-12-28T03:57:23;10.00;99.90
19555;DHT22;9924;50.828;6.440;2023-12-28T03:59:50;9.90;99.90
19555;DHT22;9924;50.828;6.440;2023-12-28T04:02:15;10.00;99.90
19555;DHT22;9924;50.828;6.440;2023-12-28T04:04:41;10.10;99.90
19555;DHT22;9924;50.828;6.440;2023-12-28T04:07:07;10.00;99.90
19555;DHT22;9924;50.828;6.440;2023-12-28T04:09:33;10.00;99.90
19555;DHT22;9924;50.828;6.440;2023-12-28T04:11:59;10.00;99.90
19555;DHT22;9924;50.828;6.440;2023-12-28T04:14:25;10.00;99.90
19555;DHT22;9924;50.828;6.440;2023-12-28T04:16:50;10.10;99.90
19555;DHT22;9924;50.828;6.440;2023-12-28T04:19:16;10.10;99.90
19555;DHT22;9924;50.828;6.440;2023-12-28T04:21:44;10.10;99.90
19555;DHT22;9924;50.828;6.440;2023-12-28T04:24:10;10.10;99.90
19555;DHT22;9924;50.828;6.440;2023-12-28T04:26:36;10.10;99.90
19555;DHT22;9924;50.828;6.440;2023-12-28T04:29:02;10.00;99.90
19555;DHT22;9924;50.828;6.440;2023-12-28T04:31:27;10.00;99.90
19555;DHT22;9924;50.828;6.440;2023-12-28T04:33:53;10.00;99.90
19555;DHT22;9924;50.828;6.440;2023-12-28T04:36:19;10.10;99.90
19555;DHT22;9924;50.828;6.440;2023-12-28T04:38:44;10.10;99.90
19555;DHT22;9924;50.828;6.440;2023-12-28T04:41:10;10.10;99.90
19555;DHT22;9924;50.828;6.440;2023-12-28T04:43:37;10.10;99.90
19555;DHT22;9924;50.828;6.440;2023-12-28T04:46:06;10.00;99.90
19555;DHT22;9924;50.828;6.440;2023-12-28T04:48:32;10.00;99.90
19555;DHT22;9924;50.828;6.440;2023-12-28T04:50:58;10.00;99.90
19555;DHT22;9924;50.828;6.440;2023-12-28T04:53:23;10.00;99.90
19555;DHT22;9924;50.828;6.440;2023-12-28T04:55:49;9.90;99.90
19555;DHT22;9924;50.828;6.440;2023-12-28T04:58:14;9.90;99.90
19555;DHT22;9924;50.828;6.440;2023-12-28T05:00:40;9.80;99.90
19555;DHT22;9924;50.828;6.440;2023-12-28T05:03:06;9.80;99.90
19555;DHT22;9924;50.828;6.440;2023-12-28T05:05:32;9.80;99.90
19555;DHT22;9924;50.828;6.440;2023-12-28T05:07:58;9.80;99.90
19555;DHT22;9924;50.828;6.440;2023-12-28T05:10:23;9.80;99.90
19555;DHT22;9924;50.828;6.440;2023-12-28T05:12:49;9.70;99.90
19555;DHT22;9924;50.828;6.440;2023-12-28T05:15:15;9.70;99.90
19555;DHT22;9924;50.828;6.440;2023-12-28T05:17:41;9.60;99.90
19555;DHT22;9924;50.828;6.440;2023-12-28T05:20:07;9.50;99.90
19555;DHT22;9924;50.828;6.440;2023-12-28T05:22:33;9.50;99.90
19555;DHT22;9924;50.828;6.440;2023-12-28T05:24:58;9.50;99.90
19555;DHT22;9924;50.828;6.440;2023-12-28T05:27:24;9.50;99.90
19555;DHT22;9924;50.828;6.440;2023-12-28T05:29:50;9.60;99.90
19555;DHT22;9924;50.828;6.440;2023-12-28T05:32:15;9.70;99.90
19555;DHT22;9924;50.828;6.440;2023-12-28T05:34:41;9.70;99.90
19555;DHT22;9924;50.828;6.440;2023-12-28T05:37:07;9.60;99.90
19555;DHT22;9924;50.828;6.440;2023-12-28T05:39:32;9.60;99.90
19555;DHT22;9924;50.828;6.440;2023-12-28T05:42:00;9.60;99.90
19555;DHT22;9924;50.828;6.440;2023-12-28T05:44:26;9.70;99.90
19555;DHT22;9924;50.828;6.440;2023-12-28T05:46:51;9.50;99.90
19555;DHT22;9924;50.828;6.440;2023-12-28T05:49:17;9.50;99.90
19555;DHT22;9924;50.828;6.440;2023-12-28T05:51:43;9.50;99.90
19555;DHT22;9924;50.828;6.440;2023-12-28T05:54:09;9.50;99.90
19555;DHT22;9924;50.828;6.440;2023-12-28T05:56:35;9.50;99.90
19555;DHT22;9924;50.828;6.440;2023-12-28T05:59:01;9.50;99.90
19555;DHT22;9924;50.828;6.440;2023-12-28T06:01:26;9.50;99.90
19555;DHT22;9924;50.828;6.440;2023-12-28T06:03:53;9.50;99.90
19555;DHT22;9924;50.828;6.440;2023-12-28T06:06:19;9.40;99.90
19555;DHT22;9924;50.828;6.440;2023-12-28T06:08:45;9.40;99.90
19555;DHT22;9924;50.828;6.440;2023-12-28T06:11:10;9.40;99.90
19555;DHT22;9924;50.828;6.440;2023-12-28T06:13:36;9.50;99.90
19555;DHT22;9924;50.828;6.440;2023-12-28T06:16:02;9.40;99.90
19555;DHT22;9924;50.828;6.440;2023-12-28T06:18:28;9.40;99.90
19555;DHT22;9924;50.828;6.440;2023-12-28T06:20:53;9.40;99.90
19555;DHT22;9924;50.828;6.440;2023-12-28T06:23:19;9.30;99.90
19555;DHT22;9924;50.828;6.440;2023-12-28T06:25:45;9.40;99.90
19555;DHT22;9924;50.828;6.440;2023-12-28T06:28:10;9.30;99.90
19555;DHT22;9924;50.828;6.440;2023-12-28T06:30:36;9.20;99.90
19555;DHT22;9924;50.828;6.440;2023-12-28T06:33:02;9.30;99.90
19555;DHT22;9924;50.828;6.440;2023-12-28T06:35:27;9.20;99.90
19555;DHT22;9924;50.828;6.440;2023-12-28T06:37:53;9.20;99.90
19555;DHT22;9924;50.828;6.440;2023-12-28T06:40:19;9.20;99.90
19555;DHT22;9924;50.828;6.440;2023-12-28T06:42:44;9.10;99.90
19555;DHT22;9924;50.828;6.440;2023-12-28T06:45:10;9.00;99.90
19555;DHT22;9924;50.828;6.440;2023-12-28T06:47:36;9.10;99.90
19555;DHT22;9924;50.828;6.440;2023-12-28T06:50:02;9.20;99.90
19555;DHT22;9924;50.828;6.440;2023-12-28T06:52:28;9.20;99.90
19555;DHT22;9924;50.828;6.440;2023-12-28T06:54:54;9.20;99.90
19555;DHT22;9924;50.828;6.440;2023-12-28T06:57:20;9.20;99.90
19555;DHT22;9924;50.828;6.440;2023-12-28T06:59:45;9.20;99.90
19555;DHT22;9924;50.828;6.440;2023-12-28T07:02:11;9.20;99.90
19555;DHT22;9924;50.828;6.440;2023-12-28T07:04:37;9.20;99.90
19555;DHT22;9924;50.828;6.440;2023-12-28T07:07:03;9.20;99.90
19555;DHT22;9924;50.828;6.440;2023-12-28T07:09:29;9.20;99.90
19555;DHT22;9924;50.828;6.440;2023-12-28T07:11:55;9.20;99.90
19555;DHT22;9924;50.828;6.440;2023-12-28T07:14:20;9.20;99.90
19555;DHT22;9924;50.828;6.440;2023-12-28T07:16:46;9.20;99.90
19555;DHT22;9924;50.828;6.440;2023-12-28T07:19:12;9.20;99.90
19555;DHT22;9924;50.828;6.440;2023-12-28T07:21:38;9.00;99.90
19555;DHT22;9924;50.828;6.440;2023-12-28T07:24:04;8.90;99.90
19555;DHT22;9924;50.828;6.440;2023-12-28T07:26:30;8.90;99.90
19555;DHT22;9924;50.828;6.440;2023-12-28T07:28:55;9.00;99.90
19555;DHT22;9924;50.828;6.440;2023-12-28T07:31:27;9.00;99.90
19555;DHT22;9924;50.828;6.440;2023-12-28T07:33:54;9.00;99.90
19555;DHT22;9924;50.828;6.440;2023-12-28T07:36:20;9.00;99.90
19555;DHT22;9924;50.828;6.440;2023-12-28T07:38:46;9.00;99.90
19555;DHT22;9924;50.828;6.440;2023-12-28T07:41:12;9.10;99.90
19555;DHT22;9924;50.828;6.440;2023-12-28T07:43:38;9.20;99.90
19555;DHT22;9924;50.828;6.440;2023-12-28T07:46:03;9.40;99.90
19555;DHT22;9924;50.828;6.440;2023-12-28T07:48:30;9.30;99.90
19555;DHT22;9924;50.828;6.440;2023-12-28T07:50:59;9.20;99.90
19555;DHT22;9924;50.828;6.440;2023-12-28T07:53:29;9.30;99.90
19555;DHT22;9924;50.828;6.440;2023-12-28T07:55:54;9.30;99.90
19555;DHT22;9924;50.828;6.440;2023-12-28T07:58:21;9.30;99.90
19555;DHT22;9924;50.828;6.440;2023-12-28T08:00:47;9.30;99.90
19555;DHT22;9924;50.828;6.440;2023-12-28T08:03:13;9.30;99.90
19555;DHT22;9924;50.828;6.440;2023-12-28T08:05:41;9.30;99.90
19555;DHT22;9924;50.828;6.440;2023-12-28T08:08:06;9.40;99.90
19555;DHT22;9924;50.828;6.440;2023-12-28T08:10:33;9.50;99.90
19555;DHT22;9924;50.828;6.440;2023-12-28T08:12:58;9.50;99.90
19555;DHT22;9924;50.828;6.440;2023-12-28T08:15:24;9.60;99.90
19555;DHT22;9924;50.828;6.440;2023-12-28T08:17:50;9.60;99.90
19555;DHT22;9924;50.828;6.440;2023-12-28T08:20:16;9.60;99.90
19555;DHT22;9924;50.828;6.440;2023-12-28T08:22:42;9.60;99.90
19555;DHT22;9924;50.828;6.440;2023-12-28T08:25:07;9.60;99.90
19555;DHT22;9924;50.828;6.440;2023-12-28T08:27:33;9.50;99.90
19555;DHT22;9924;50.828;6.440;2023-12-28T08:29:59;9.50;99.90
19555;DHT22;9924;50.828;6.440;2023-12-28T08:32:25;9.60;99.90
19555;DHT22;9924;50.828;6.440;2023-12-28T08:34:50;9.50;99.90
19555;DHT22;9924;50.828;6.440;2023-12-28T08:37:16;9.40;99.90
19555;DHT22;9924;50.828;6.440;2023-12-28T08:39:42;9.40;99.90
19555;DHT22;9924;50.828;6.440;2023-12-28T08:42:07;9.50;99.90
19555;DHT22;9924;50.828;6.440;2023-12-28T08:44:33;9.60;99.90
19555;DHT22;9924;50.828;6.440;2023-12-28T08:47:00;9.70;99.90
19555;DHT22;9924;50.828;6.440;2023-12-28T08:49:27;9.70;99.90
19555;DHT22;9924;50.828;6.440;2023-12-28T08:51:53;9.80;99.90
19555;DHT22;9924;50.828;6.440;2023-12-28T08:54:19;9.90;99.90
19555;DHT22;9924;50.828;6.440;2023-12-28T08:56:44;10.00;99.90
19555;DHT22;9924;50.828;6.440;2023-12-28T08:59:10;10.10;99.90
19555;DHT22;9924;50.828;6.440;2023-12-28T09:01:36;10.10;99.90
19555;DHT22;9924;50.828;6.440;2023-12-28T09:04:02;10.10;99.90
19555;DHT22;9924;50.828;6.440;2023-12-28T09:06:28;10.20;99.90
19555;DHT22;9924;50.828;6.440;2023-12-28T09:08:54;10.20;99.90
19555;DHT22;9924;50.828;6.440;2023-12-28T09:11:20;10.20;99.90
19555;DHT22;9924;50.828;6.440;2023-12-28T09:13:46;10.30;99.90
19555;DHT22;9924;50.828;6.440;2023-12-28T09:16:13;10.40;99.90
19555;DHT22;9924;50.828;6.440;2023-12-28T09:18:39;10.40;99.90
19555;DHT22;9924;50.828;6.440;2023-12-28T09:21:06;10.50;99.90
19555;DHT22;9924;50.828;6.440;2023-12-28T09:23:33;10.40;99.90
19555;DHT22;9924;50.828;6.440;2023-12-28T09:26:00;10.40;99.90
19555;DHT22;9924;50.828;6.440;2023-12-28T09:28:26;10.50;99.90
19555;DHT22;9924;50.828;6.440;2023-12-28T09:30:52;10.50;99.90
19555;DHT22;9924;50.828;6.440;2023-12-28T09:33:18;10.50;99.90
19555;DHT22;9924;50.828;6.440;2023-12-28T09:35:44;10.40;99.90
19555;DHT22;9924;50.828;6.440;2023-12-28T09:38:09;10.50;99.90
19555;DHT22;9924;50.828;6.440;2023-12-28T09:40:36;10.70;99.90
19555;DHT22;9924;50.828;6.440;2023-12-28T09:43:21;10.80;99.90
19555;DHT22;9924;50.828;6.440;2023-12-28T09:45:48;11.00;99.90
19555;DHT22;9924;50.828;6.440;2023-12-28T09:48:17;11.40;99.90
19555;DHT22;9924;50.828;6.440;2023-12-28T09:50:53;11.80;99.90
19555;DHT22;9924;50.828;6.440;2023-12-28T09:53:26;12.10;99.90
19555;DHT22;9924;50.828;6.440;2023-12-28T09:55:52;12.40;99.90
19555;DHT22;9924;50.828;6.440;2023-12-28T09:58:20;12.60;99.90
19555;DHT22;9924;50.828;6.440;2023-12-28T10:00:49;12.50;99.90
19555;DHT22;9924;50.828;6.440;2023-12-28T10:03:18;12.70;99.90
19555;DHT22;9924;50.828;6.440;2023-12-28T10:05:44;12.90;99.90
19555;DHT22;9924;50.828;6.440;2023-12-28T10:08:14;12.90;99.90
19555;DHT22;9924;50.828;6.440;2023-12-28T10:10:41;12.90;99.90
19555;DHT22;9924;50.828;6.440;2023-12-28T10:13:07;13.10;99.90
19555;DHT22;9924;50.828;6.440;2023-12-28T10:15:36;13.00;99.90
19555;DHT22;9924;50.828;6.440;2023-12-28T10:18:04;12.90;99.90
19555;DHT22;9924;50.828;6.440;2023-12-28T10:20:30;12.90;99.90
19555;DHT22;9924;50.828;6.440;2023-12-28T10:22:58;13.10;99.90
19555;DHT22;9924;50.828;6.440;2023-12-28T10:25:24;13.10;99.90
19555;DHT22;9924;50.828;6.440;2023-12-28T10:27:53;13.20;99.90
19555;DHT22;9924;50.828;6.440;2023-12-28T10:30:22;13.20;99.90
19555;DHT22;9924;50.828;6.440;2023-12-28T10:32:48;13.30;99.90
19555;DHT22;9924;50.828;6.440;2023-12-28T10:35:15;13.10;99.90
19555;DHT22;9924;50.828;6.440;2023-12-28T10:37:41;13.10;99.90
19555;DHT22;9924;50.828;6.440;2023-12-28T10:40:07;13.00;99.90
19555;DHT22;9924;50.828;6.440;2023-12-28T10:42:49;13.00;99.90
19555;DHT22;9924;50.828;6.440;2023-12-28T10:45:18;12.90;99.90
19555;DHT22;9924;50.828;6.440;2023-12-28T10:48:09;13.10;99.90
19555;DHT22;9924;50.828;6.440;2023-12-28T10:50:42;13.30;99.90
19555;DHT22;9924;50.828;6.440;2023-12-28T10:58:58;13.40;99.90
19555;DHT22;9924;50.828;6.440;2023-12-28T11:01:31;13.60;99.90
19555;DHT22;9924;50.828;6.440;2023-12-28T11:04:06;13.80;99.90
19555;DHT22;9924;50.828;6.440;2023-12-28T11:06:35;13.60;99.90
19555;DHT22;9924;50.828;6.440;2023-12-28T11:09:03;13.90;99.90
19555;DHT22;9924;50.828;6.440;2023-12-28T11:11:31;13.90;99.90
19555;DHT22;9924;50.828;6.440;2023-12-28T11:13:59;14.00;99.90
19555;DHT22;9924;50.828;6.440;2023-12-28T11:16:27;14.10;99.90
19555;DHT22;9924;50.828;6.440;2023-12-28T11:18:54;14.20;99.90
19555;DHT22;9924;50.828;6.440;2023-12-28T11:21:21;14.30;99.90
19555;DHT22;9924;50.828;6.440;2023-12-28T11:23:48;14.40;99.90
19555;DHT22;9924;50.828;6.440;2023-12-28T11:26:21;14.30;99.90
19555;DHT22;9924;50.828;6.440;2023-12-28T11:28:47;14.40;99.90
19555;DHT22;9924;50.828;6.440;2023-12-28T11:31:17;14.70;99.90
19555;DHT22;9924;50.828;6.440;2023-12-28T11:33:44;14.90;99.90
19555;DHT22;9924;50.828;6.440;2023-12-28T11:36:11;14.50;99.90
19555;DHT22;9924;50.828;6.440;2023-12-28T11:38:40;14.30;99.90
19555;DHT22;9924;50.828;6.440;2023-12-28T11:41:06;14.30;99.90
19555;DHT22;9924;50.828;6.440;2023-12-28T11:43:34;13.90;99.90
19555;DHT22;9924;50.828;6.440;2023-12-28T11:46:01;13.80;99.90
19555;DHT22;9924;50.828;6.440;2023-12-28T11:48:30;13.80;99.90
19555;DHT22;9924;50.828;6.440;2023-12-28T11:50:58;14.00;99.90
19555;DHT22;9924;50.828;6.440;2023-12-28T11:53:25;14.00;99.90
19555;DHT22;9924;50.828;6.440;2023-12-28T11:55:52;14.20;99.90
19555;DHT22;9924;50.828;6.440;2023-12-28T11:58:18;14.20;99.90
19555;DHT22;9924;50.828;6.440;2023-12-28T12:00:44;14.10;99.90
19555;DHT22;9924;50.828;6.440;2023-12-28T12:03:11;14.00;99.90
19555;DHT22;9924;50.828;6.440;2023-12-28T12:05:37;13.60;99.90
19555;DHT22;9924;50.828;6.440;2023-12-28T12:08:06;13.20;99.90
19555;DHT22;9924;50.828;6.440;2023-12-28T12:10:39;13.00;99.90
19555;DHT22;9924;50.828;6.440;2023-12-28T12:13:05;13.00;99.90
19555;DHT22;9924;50.828;6.440;2023-12-28T12:15:31;13.00;99.90
19555;DHT22;9924;50.828;6.440;2023-12-28T12:17:57;13.00;99.90
19555;DHT22;9924;50.828;6.440;2023-12-28T12:20:23;13.10;99.90
19555;DHT22;9924;50.828;6.440;2023-12-28T12:22:49;13.50;99.90
19555;DHT22;9924;50.828;6.440;2023-12-28T12:25:16;13.80;99.90
19555;DHT22;9924;50.828;6.440;2023-12-28T12:27:45;13.80;99.90
19555;DHT22;9924;50.828;6.440;2023-12-28T12:30:11;14.00;99.90
19555;DHT22;9924;50.828;6.440;2023-12-28T12:32:37;13.40;99.90
19555;DHT22;9924;50.828;6.440;2023-12-28T12:35:06;12.70;99.90
19555;DHT22;9924;50.828;6.440;2023-12-28T12:37:32;12.80;99.90
19555;DHT22;9924;50.828;6.440;2023-12-28T12:39:57;12.70;99.90
19555;DHT22;9924;50.828;6.440;2023-12-28T12:42:23;12.70;99.90
19555;DHT22;9924;50.828;6.440;2023-12-28T12:44:49;12.80;99.90
19555;DHT22;9924;50.828;6.440;2023-12-28T12:47:15;12.90;99.90
19555;DHT22;9924;50.828;6.440;2023-12-28T12:49:41;12.90;99.90
19555;DHT22;9924;50.828;6.440;2023-12-28T12:52:08;12.90;99.90
19555;DHT22;9924;50.828;6.440;2023-12-28T12:54:35;13.00;99.90
19555;DHT22;9924;50.828;6.440;2023-12-28T12:57:00;13.20;99.90
19555;DHT22;9924;50.828;6.440;2023-12-28T12:59:26;13.20;99.90
19555;DHT22;9924;50.828;6.440;2023-12-28T13:01:52;13.10;99.90
19555;DHT22;9924;50.828;6.440;2023-12-28T13:04:18;13.00;99.90
19555;DHT22;9924;50.828;6.440;2023-12-28T13:06:45;12.70;99.90
19555;DHT22;9924;50.828;6.440;2023-12-28T13:09:10;12.40;99.90
19555;DHT22;9924;50.828;6.440;2023-12-28T13:11:37;12.20;99.90
19555;DHT22;9924;50.828;6.440;2023-12-28T13:14:03;12.00;99.90
19555;DHT22;9924;50.828;6.440;2023-12-28T13:16:30;12.00;99.90
19555;DHT22;9924;50.828;6.440;2023-12-28T13:18:56;12.20;99.90
19555;DHT22;9924;50.828;6.440;2023-12-28T13:21:22;12.30;99.90
19555;DHT22;9924;50.828;6.440;2023-12-28T13:23:48;12.30;99.90
19555;DHT22;9924;50.828;6.440;2023-12-28T13:26:13;12.10;99.90
19555;DHT22;9924;50.828;6.440;2023-12-28T13:28:40;12.00;99.90
19555;DHT22;9924;50.828;6.440;2023-12-28T13:31:08;12.10;99.90
19555;DHT22;9924;50.828;6.440;2023-12-28T13:33:33;12.00;99.90
19555;DHT22;9924;50.828;6.440;2023-12-28T13:35:59;11.90;99.90
19555;DHT22;9924;50.828;6.440;2023-12-28T13:38:25;11.80;99.90
19555;DHT22;9924;50.828;6.440;2023-12-28T13:40:51;11.80;99.90
19555;DHT22;9924;50.828;6.440;2023-12-28T13:43:17;11.90;99.90
19555;DHT22;9924;50.828;6.440;2023-12-28T13:45:42;12.00;99.90
19555;DHT22;9924;50.828;6.440;2023-12-28T13:48:08;11.90;99.90
19555;DHT22;9924;50.828;6.440;2023-12-28T13:50:34;11.70;99.90
19555;DHT22;9924;50.828;6.440;2023-12-28T13:53:00;11.70;99.90
19555;DHT22;9924;50.828;6.440;2023-12-28T13:55:27;11.60;99.90
19555;DHT22;9924;50.828;6.440;2023-12-28T13:57:54;11.60;99.90
19555;DHT22;9924;50.828;6.440;2023-12-28T14:00:20;11.50;99.90
19555;DHT22;9924;50.828;6.440;2023-12-28T14:02:45;11.40;99.90
19555;DHT22;9924;50.828;6.440;2023-12-28T14:05:14;11.40;99.90
19555;DHT22;9924;50.828;6.440;2023-12-28T14:07:40;11.40;99.90
19555;DHT22;9924;50.828;6.440;2023-12-28T14:10:06;11.30;99.90
19555;DHT22;9924;50.828;6.440;2023-12-28T14:12:32;11.20;99.90
19555;DHT22;9924;50.828;6.440;2023-12-28T14:14:58;11.20;99.90
19555;DHT22;9924;50.828;6.440;2023-12-28T14:17:24;11.20;99.90
19555;DHT22;9924;50.828;6.440;2023-12-28T14:19:49;11.20;99.90
19555;DHT22;9924;50.828;6.440;2023-12-28T14:22:15;11.10;99.90
19555;DHT22;9924;50.828;6.440;2023-12-28T14:24:41;11.00;99.90
19555;DHT22;9924;50.828;6.440;2023-12-28T14:27:07;11.00;99.90
19555;DHT22;9924;50.828;6.440;2023-12-28T14:29:34;10.90;99.90
19555;DHT22;9924;50.828;6.440;2023-12-28T14:32:00;10.90;99.90
19555;DHT22;9924;50.828;6.440;2023-12-28T14:34:26;11.00;99.90
19555;DHT22;9924;50.828;6.440;2023-12-28T14:36:53;10.90;99.90
19555;DHT22;9924;50.828;6.440;2023-12-28T14:39:18;10.90;99.90
19555;DHT22;9924;50.828;6.440;2023-12-28T14:41:44;10.80;99.90
19555;DHT22;9924;50.828;6.440;2023-12-28T14:44:10;10.80;99.90
19555;DHT22;9924;50.828;6.440;2023-12-28T14:46:36;10.80;99.90
19555;DHT22;9924;50.828;6.440;2023-12-28T14:49:02;10.80;99.90
19555;DHT22;9924;50.828;6.440;2023-12-28T14:51:31;10.70;99.90
19555;DHT22;9924;50.828;6.440;2023-12-28T14:53:57;10.70;99.90
19555;DHT22;9924;50.828;6.440;2023-12-28T14:56:23;10.60;99.90
19555;DHT22;9924;50.828;6.440;2023-12-28T14:58:48;10.60;99.90
19555;DHT22;9924;50.828;6.440;2023-12-28T15:01:15;10.70;99.90
19555;DHT22;9924;50.828;6.440;2023-12-28T15:03:41;10.70;99.90
19555;DHT22;9924;50.828;6.440;2023-12-28T15:06:07;10.70;99.90
19555;DHT22;9924;50.828;6.440;2023-12-28T15:08:33;10.70;99.90
19555;DHT22;9924;50.828;6.440;2023-12-28T15:10:59;10.70;99.90
19555;DHT22;9924;50.828;6.440;2023-12-28T15:13:26;10.70;99.90
19555;DHT22;9924;50.828;6.440;2023-12-28T15:15:52;10.70;99.90
19555;DHT22;9924;50.828;6.440;2023-12-28T15:18:18;10.70;99.90
19555;DHT22;9924;50.828;6.440;2023-12-28T15:20:47;10.70;99.90
19555;DHT22;9924;50.828;6.440;2023-12-28T15:23:15;10.60;99.90
19555;DHT22;9924;50.828;6.440;2023-12-28T15:25:44;10.60;99.90
19555;DHT22;9924;50.828;6.440;2023-12-28T15:28:10;10.40;99.90
19555;DHT22;9924;50.828;6.440;2023-12-28T15:30:36;10.40;99.90
19555;DHT22;9924;50.828;6.440;2023-12-28T15:33:02;10.50;99.90
19555;DHT22;9924;50.828;6.440;2023-12-28T15:35:28;10.60;99.90
19555;DHT22;9924;50.828;6.440;2023-12-28T15:37:54;10.60;99.90
19555;DHT22;9924;50.828;6.440;2023-12-28T15:40:21;10.50;99.90
19555;DHT22;9924;50.828;6.440;2023-12-28T15:42:47;10.50;99.90
19555;DHT22;9924;50.828;6.440;2023-12-28T15:45:12;10.40;99.90
19555;DHT22;9924;50.828;6.440;2023-12-28T15:47:38;10.40;99.90
19555;DHT22;9924;50.828;6.440;2023-12-28T15:50:04;10.30;99.90
19555;DHT22;9924;50.828;6.440;2023-12-28T15:52:30;10.30;99.90
19555;DHT22;9924;50.828;6.440;2023-12-28T15:54:56;10.40;99.90
19555;DHT22;9924;50.828;6.440;2023-12-28T15:57:23;10.40;99.90